Time;durP1;ratioP1;P1;durP2;ratioP2;P2;SDS_P1;SDS_P2;PMS_P1;PMS_P2;Temp;Humidity;BMP_temperature;BMP_pressure;BME280_temperature;BME280_humidity;BME280_pressure;Samples;Min_cycle;Max_cycle;Signal;HPM_P1;HPM_P2
2022/10/28 00:01:05;;;;;;;38.20;23.90;;;10.50;99.90;;;;;;6220479;23;20170;-79
2022/10/28 00:03:46;;;;;;;33.77;22.17;;;10.50;99.90;;;;;;6247759;23;20162;-79
2022/10/28 00:06:21;;;;;;;40.90;24.70;;;10.40;99.90;;;;;;6219463;23;20178;-80
2022/10/28 00:08:49;;;;;;;41.77;25.80;;;10.30;99.90;;;;;;6247671;23;20169;-79
2022/10/28 00:11:19;;;;;;;37.40;23.70;;;10.30;99.90;;;;;;6219622;23;20197;-80
2022/10/28 00:13:46;;;;;;;43.07;26.07;;;10.30;99.90;;;;;;6246777;23;20198;-79
2022/10/28 00:16:17;;;;;;;35.13;23.40;;;10.30;99.90;;;;;;6246491;23;20162;-80
2022/10/28 00:18:45;;;;;;;39.03;23.43;;;10.30;99.90;;;;;;6220197;23;20175;-80
2022/10/28 00:21:15;;;;;;;39.67;23.93;;;10.30;99.90;;;;;;6220670;23;20166;-80
2022/10/28 00:23:42;;;;;;;35.83;23.53;;;10.20;99.90;;;;;;6220333;23;20185;-80
2022/10/28 00:26:11;;;;;;;40.70;23.70;;;10.20;99.90;;;;;;6246540;23;20252;-79
2022/10/28 00:28:44;;;;;;;40.00;25.00;;;10.20;99.90;;;;;;6219926;23;20658;-79
2022/10/28 00:31:13;;;;;;;38.53;25.00;;;10.20;99.90;;;;;;6220543;23;20167;-79
2022/10/28 00:33:41;;;;;;;43.47;27.67;;;10.30;99.90;;;;;;6246466;23;20162;-79
2022/10/28 00:36:19;;;;;;;40.87;26.20;;;10.30;99.90;;;;;;6245182;23;20166;-79
2022/10/28 00:38:50;;;;;;;42.97;27.00;;;10.30;99.90;;;;;;6219644;23;20694;-79
2022/10/28 00:41:23;;;;;;;45.37;27.70;;;10.40;99.90;;;;;;6246531;23;20458;-79
2022/10/28 00:43:55;;;;;;;40.10;25.33;;;10.40;99.90;;;;;;6219603;23;20166;-79
2022/10/28 00:46:36;;;;;;;43.03;27.80;;;10.30;99.90;;;;;;6219702;23;20502;-80
2022/10/28 00:49:41;;;;;;;44.13;26.03;;;10.30;99.90;;;;;;6245785;23;20190;-79
2022/10/28 00:52:14;;;;;;;37.70;23.60;;;10.40;99.90;;;;;;6129046;23;20184;-80
2022/10/28 00:54:42;;;;;;;35.50;22.60;;;10.30;99.90;;;;;;6153523;23;20179;-79
2022/10/28 00:57:14;;;;;;;37.23;23.90;;;10.30;99.90;;;;;;6154425;23;20182;-79
2022/10/28 00:59:45;;;;;;;35.03;22.83;;;10.20;99.90;;;;;;6104711;23;20176;-79
2022/10/28 01:02:13;;;;;;;40.50;24.70;;;10.20;99.90;;;;;;6129168;23;20175;-79
2022/10/28 01:04:41;;;;;;;39.63;24.23;;;10.10;99.90;;;;;;6153668;23;20196;-80
2022/10/28 01:07:09;;;;;;;50.63;29.37;;;10.10;99.90;;;;;;6128785;23;20518;-79
2022/10/28 01:09:38;;;;;;;49.80;29.70;;;10.10;99.90;;;;;;6129813;23;20173;-80
2022/10/28 01:12:17;;;;;;;55.20;33.17;;;10.10;99.90;;;;;;6153259;23;20638;-79
2022/10/28 01:15:15;;;;;;;58.07;35.83;;;10.10;99.90;;;;;;6128737;23;20677;-79
2022/10/28 01:17:50;;;;;;;58.37;35.93;;;10.10;99.90;;;;;;6154068;23;20169;-79
2022/10/28 01:20:20;;;;;;;61.57;36.40;;;10.20;99.90;;;;;;6153417;23;20182;-79
2022/10/28 01:23:34;;;;;;;56.13;35.63;;;10.20;99.90;;;;;;6129066;23;20689;-79
2022/10/28 01:26:34;;;;;;;58.20;35.23;;;10.20;99.90;;;;;;6146456;23;20203;-78
2022/10/28 01:29:38;;;;;;;60.50;38.27;;;10.30;99.90;;;;;;6189170;23;20192;-77
2022/10/28 01:32:39;;;;;;;63.37;38.07;;;10.30;99.90;;;;;;6219319;23;20669;-79
2022/10/28 01:35:20;;;;;;;62.17;38.23;;;10.40;99.90;;;;;;6219272;23;20173;-78
2022/10/28 01:37:58;;;;;;;64.93;39.03;;;10.40;99.90;;;;;;6219317;23;20528;-80
2022/10/28 01:40:34;;;;;;;62.87;36.90;;;10.40;99.90;;;;;;6246322;23;20243;-79
2022/10/28 01:43:39;;;;;;;62.30;36.07;;;10.40;99.90;;;;;;6245723;23;20228;-79
2022/10/28 01:46:27;;;;;;;62.37;37.27;;;10.40;99.90;;;;;;6153169;23;20200;-80
2022/10/28 01:48:58;;;;;;;57.27;36.07;;;10.40;99.90;;;;;;6153712;23;20172;-80
2022/10/28 01:51:38;;;;;;;60.27;36.13;;;10.50;99.90;;;;;;6129365;23;20172;-79
2022/10/28 01:54:07;;;;;;;60.23;35.20;;;10.50;99.90;;;;;;6153333;23;20559;-79
2022/10/28 01:56:39;;;;;;;60.53;36.33;;;10.50;99.90;;;;;;6153307;23;20219;-78
2022/10/28 01:59:11;;;;;;;52.80;33.73;;;10.60;99.90;;;;;;6128983;23;20525;-79
2022/10/28 02:01:38;;;;;;;56.67;34.20;;;10.50;99.90;;;;;;6129856;23;20508;-79
2022/10/28 02:04:05;;;;;;;54.57;34.13;;;10.60;99.90;;;;;;6153601;23;20192;-79
2022/10/28 02:06:33;;;;;;;57.17;33.87;;;10.50;99.90;;;;;;6128826;23;20176;-79
2022/10/28 02:09:28;;;;;;;53.70;34.33;;;10.50;99.90;;;;;;6154924;23;20267;-80
2022/10/28 02:11:55;;;;;;;51.67;33.43;;;10.50;99.90;;;;;;6155224;23;20192;-79
2022/10/28 02:14:43;;;;;;;54.43;33.17;;;10.50;99.90;;;;;;6130459;23;20200;-79
2022/10/28 02:17:51;;;;;;;54.87;33.60;;;10.50;99.90;;;;;;6130913;23;20176;-79
2022/10/28 02:20:24;;;;;;;49.77;31.57;;;10.50;99.90;;;;;;6155464;23;20200;-79
2022/10/28 02:22:57;;;;;;;50.33;31.80;;;10.40;99.90;;;;;;6196559;23;20174;-79
2022/10/28 02:25:41;;;;;;;48.63;30.20;;;10.50;99.90;;;;;;6246413;23;20192;-79
2022/10/28 02:28:11;;;;;;;47.43;31.33;;;10.50;99.90;;;;;;6221033;23;20177;-79
2022/10/28 02:30:50;;;;;;;49.23;30.77;;;10.40;99.90;;;;;;6221265;23;20170;-79
2022/10/28 02:33:22;;;;;;;49.40;30.63;;;10.40;99.90;;;;;;6248585;23;20166;-79
2022/10/28 02:35:54;;;;;;;47.63;30.43;;;10.40;99.90;;;;;;6247398;23;20163;-80
2022/10/28 02:38:29;;;;;;;48.27;30.27;;;10.30;99.90;;;;;;6220857;23;20163;-80
2022/10/28 02:41:01;;;;;;;49.03;29.77;;;10.30;99.90;;;;;;6220876;23;20166;-79
2022/10/28 02:43:30;;;;;;;49.60;30.97;;;10.30;99.90;;;;;;6221294;23;20190;-80
2022/10/28 02:46:01;;;;;;;49.67;30.63;;;10.30;99.90;;;;;;6246309;23;20501;-79
2022/10/28 02:48:32;;;;;;;49.13;30.33;;;10.20;99.90;;;;;;6221369;23;20178;-80
2022/10/28 02:51:14;;;;;;;47.33;30.13;;;10.20;99.90;;;;;;6247279;23;20158;-80
2022/10/28 02:54:08;;;;;;;48.53;29.47;;;10.20;99.90;;;;;;6220784;23;20525;-80
2022/10/28 02:56:46;;;;;;;49.90;29.47;;;10.20;99.90;;;;;;6245842;23;20174;-80
2022/10/28 02:59:13;;;;;;;48.60;30.13;;;10.20;99.90;;;;;;6220367;23;20182;-80
2022/10/28 03:01:40;;;;;;;47.50;29.30;;;10.10;99.90;;;;;;6220526;23;20158;-79
2022/10/28 03:04:07;;;;;;;47.87;29.53;;;10.10;99.90;;;;;;6220246;23;20182;-80
2022/10/28 03:06:34;;;;;;;51.23;29.90;;;10.00;99.90;;;;;;6195806;23;20186;-79
2022/10/28 03:09:11;;;;;;;47.13;27.53;;;10.00;99.90;;;;;;6247599;23;20171;-79
2022/10/28 03:11:38;;;;;;;46.20;28.63;;;10.10;99.90;;;;;;6220320;23;20165;-80
2022/10/28 03:14:05;;;;;;;46.60;27.47;;;10.10;99.90;;;;;;6220391;23;20206;-79
2022/10/28 03:16:35;;;;;;;44.37;27.77;;;10.10;99.90;;;;;;6220209;23;20239;-80
2022/10/28 03:19:02;;;;;;;44.27;27.00;;;10.10;99.90;;;;;;6245484;23;20201;-80
2022/10/28 03:21:29;;;;;;;41.73;26.07;;;10.10;99.90;;;;;;6220136;23;20608;-80
2022/10/28 03:23:56;;;;;;;40.83;24.47;;;10.10;99.90;;;;;;6220519;23;20262;-80
2022/10/28 03:26:23;;;;;;;40.30;25.13;;;10.10;99.90;;;;;;6194946;23;20204;-80
2022/10/28 03:28:50;;;;;;;38.67;24.77;;;10.10;99.90;;;;;;6247173;23;20225;-81
2022/10/28 03:31:16;;;;;;;36.73;23.70;;;10.10;99.90;;;;;;6220723;23;20181;-79
2022/10/28 03:33:43;;;;;;;36.80;23.60;;;10.10;99.90;;;;;;6247020;23;20166;-79
2022/10/28 03:36:10;;;;;;;37.83;24.37;;;10.00;99.90;;;;;;6246977;23;20177;-79
2022/10/28 03:38:40;;;;;;;38.70;24.13;;;10.00;99.90;;;;;;6220069;23;20173;-79
2022/10/28 03:41:07;;;;;;;39.27;25.30;;;10.00;99.90;;;;;;6245041;23;20177;-79
2022/10/28 03:43:34;;;;;;;38.30;24.63;;;10.00;99.90;;;;;;6219793;23;20177;-80
2022/10/28 03:46:01;;;;;;;34.53;23.17;;;10.00;99.90;;;;;;6219612;23;20220;-79
2022/10/28 03:48:28;;;;;;;36.80;23.97;;;9.90;99.90;;;;;;6245568;23;20166;-78
2022/10/28 03:51:09;;;;;;;38.53;24.37;;;9.80;99.90;;;;;;6219965;23;20163;-80
2022/10/28 03:53:37;;;;;;;43.73;25.50;;;9.80;99.90;;;;;;6220062;23;20497;-79
2022/10/28 03:56:07;;;;;;;39.67;25.20;;;9.70;99.90;;;;;;6247258;23;20224;-80
2022/10/28 03:58:34;;;;;;;38.17;24.80;;;9.60;99.90;;;;;;6245271;23;20197;-79
2022/10/28 04:01:07;;;;;;;40.47;24.60;;;9.60;99.90;;;;;;6246850;23;20166;-79
2022/10/28 04:03:35;;;;;;;38.47;24.13;;;9.50;99.90;;;;;;6246917;23;20232;-80
2022/10/28 04:06:01;;;;;;;38.63;24.43;;;9.50;99.90;;;;;;6244871;23;20635;-79
2022/10/28 04:08:28;;;;;;;40.90;25.20;;;9.40;99.90;;;;;;6219616;23;20163;-80
2022/10/28 04:10:55;;;;;;;40.47;26.17;;;9.40;99.90;;;;;;6246073;23;20158;-78
2022/10/28 04:13:22;;;;;;;41.97;25.87;;;9.30;99.90;;;;;;6219362;23;20208;-79
2022/10/28 04:15:49;;;;;;;40.47;26.07;;;9.20;99.90;;;;;;6219396;23;20610;-79
2022/10/28 04:18:16;;;;;;;40.73;24.80;;;9.10;99.90;;;;;;6246574;23;20170;-80
2022/10/28 04:20:44;;;;;;;41.03;25.77;;;9.10;99.90;;;;;;6219476;23;20166;-80
2022/10/28 04:23:17;;;;;;;40.50;24.60;;;9.10;99.90;;;;;;6219611;23;20590;-80
2022/10/28 04:25:53;;;;;;;40.27;24.53;;;9.00;99.90;;;;;;6219692;23;20190;-80
2022/10/28 04:28:28;;;;;;;42.10;25.43;;;9.00;99.90;;;;;;6219474;23;20185;-80
2022/10/28 04:30:55;;;;;;;41.40;24.97;;;8.90;99.90;;;;;;6219345;23;20471;-78
2022/10/28 04:33:28;;;;;;;40.10;24.30;;;8.90;99.90;;;;;;6245069;23;20602;-80
2022/10/28 04:35:55;;;;;;;45.03;24.97;;;8.80;99.90;;;;;;6219747;23;20158;-80
2022/10/28 04:38:22;;;;;;;38.17;24.30;;;8.80;99.90;;;;;;6246082;23;20272;-80
2022/10/28 04:40:55;;;;;;;39.07;24.87;;;8.70;99.90;;;;;;6219581;22;20162;-80
2022/10/28 04:43:22;;;;;;;37.47;23.20;;;8.60;99.90;;;;;;6244875;23;20197;-79
2022/10/28 04:45:49;;;;;;;42.30;25.17;;;8.60;99.90;;;;;;6244670;23;20248;-80
2022/10/28 04:48:16;;;;;;;37.50;22.77;;;8.60;99.90;;;;;;6244885;23;20172;-80
2022/10/28 04:50:44;;;;;;;38.63;23.40;;;8.60;99.90;;;;;;6219919;23;20178;-80
2022/10/28 04:53:12;;;;;;;36.00;22.97;;;8.60;99.90;;;;;;6219134;23;20194;-80
2022/10/28 04:55:39;;;;;;;39.03;23.47;;;8.60;99.90;;;;;;6244558;23;20201;-80
2022/10/28 04:58:08;;;;;;;38.40;23.40;;;8.60;99.90;;;;;;6219217;23;20475;-80
2022/10/28 05:00:36;;;;;;;39.63;23.13;;;8.60;99.90;;;;;;6246480;23;20154;-78
2022/10/28 05:03:04;;;;;;;39.40;23.33;;;8.60;99.90;;;;;;6219146;23;20172;-79
2022/10/28 05:05:31;;;;;;;38.97;23.70;;;8.60;99.90;;;;;;6219122;23;20605;-78
2022/10/28 05:07:58;;;;;;;39.00;23.43;;;8.60;99.90;;;;;;6218925;23;20439;-79
2022/10/28 05:10:25;;;;;;;40.57;23.17;;;8.50;99.90;;;;;;6194638;23;20262;-80
2022/10/28 05:12:52;;;;;;;39.23;23.73;;;8.60;99.90;;;;;;6218658;23;20255;-77
2022/10/28 05:15:20;;;;;;;38.30;23.07;;;8.50;99.90;;;;;;6245627;22;20192;-80
2022/10/28 05:17:47;;;;;;;38.70;22.67;;;8.50;99.90;;;;;;6245965;23;20170;-78
2022/10/28 05:20:17;;;;;;;39.50;23.03;;;8.40;99.90;;;;;;6194845;23;20162;-78
2022/10/28 05:22:47;;;;;;;37.93;22.43;;;8.50;99.90;;;;;;6219099;23;20596;-77
2022/10/28 05:25:14;;;;;;;40.03;23.53;;;8.40;99.90;;;;;;6218913;23;20242;-76
2022/10/28 05:27:41;;;;;;;36.73;22.47;;;8.40;99.90;;;;;;6244428;23;20175;-76
2022/10/28 05:30:08;;;;;;;36.77;22.73;;;8.40;99.90;;;;;;6246323;23;20167;-76
2022/10/28 05:32:35;;;;;;;39.90;22.50;;;8.40;99.90;;;;;;6245953;23;20607;-76
2022/10/28 05:35:03;;;;;;;39.80;22.53;;;8.40;99.90;;;;;;6219093;23;20177;-79
2022/10/28 05:37:31;;;;;;;40.07;22.83;;;8.50;99.90;;;;;;6218923;23;20166;-81
2022/10/28 05:39:57;;;;;;;39.80;23.43;;;8.50;99.90;;;;;;6219472;23;20177;-76
2022/10/28 05:42:24;;;;;;;38.70;22.63;;;8.60;99.90;;;;;;6243914;23;20190;-76
2022/10/28 05:44:51;;;;;;;40.97;22.50;;;8.60;99.90;;;;;;6244673;23;20177;-79
2022/10/28 05:47:21;;;;;;;38.13;21.70;;;8.60;99.90;;;;;;6244185;23;20220;-77
2022/10/28 05:49:48;;;;;;;38.97;21.87;;;8.60;99.90;;;;;;6218973;23;20174;-78
2022/10/28 05:52:15;;;;;;;41.43;22.30;;;8.60;99.90;;;;;;6244818;23;20224;-82
2022/10/28 05:54:41;;;;;;;38.33;21.43;;;8.60;99.90;;;;;;6220297;23;20569;-78
2022/10/28 05:57:08;;;;;;;38.60;21.47;;;8.60;99.90;;;;;;6245884;23;20612;-80
2022/10/28 05:59:35;;;;;;;37.77;21.37;;;8.70;99.90;;;;;;6245970;23;20176;-78
2022/10/28 06:02:02;;;;;;;39.13;22.47;;;8.70;99.90;;;;;;6219187;23;20223;-79
2022/10/28 06:04:30;;;;;;;39.17;23.20;;;8.70;99.90;;;;;;6245671;23;20200;-78
2022/10/28 06:06:57;;;;;;;40.60;22.83;;;8.70;99.90;;;;;;6244363;23;20604;-78
2022/10/28 06:09:27;;;;;;;42.57;23.63;;;8.70;99.90;;;;;;6218956;23;20170;-79
2022/10/28 06:11:54;;;;;;;45.53;24.23;;;8.70;99.90;;;;;;6219145;23;20170;-74
2022/10/28 06:14:20;;;;;;;46.23;24.27;;;8.70;99.90;;;;;;6245146;22;20220;-76
2022/10/28 06:16:48;;;;;;;43.27;24.20;;;8.80;99.90;;;;;;6218846;23;20177;-76
2022/10/28 06:19:14;;;;;;;46.47;25.13;;;8.80;99.90;;;;;;6218970;23;20619;-76
2022/10/28 06:21:42;;;;;;;49.53;25.93;;;8.80;99.90;;;;;;6245679;23;20170;-79
2022/10/28 06:24:10;;;;;;;46.30;24.30;;;8.80;99.90;;;;;;6219228;23;20171;-78
2022/10/28 06:26:40;;;;;;;45.43;25.33;;;8.90;99.90;;;;;;6219063;23;20709;-80
2022/10/28 06:29:09;;;;;;;46.70;24.90;;;8.90;99.90;;;;;;6219464;23;20200;-78
2022/10/28 06:31:40;;;;;;;45.33;24.47;;;9.00;99.90;;;;;;6219727;23;20166;-79
2022/10/28 06:34:09;;;;;;;47.77;25.30;;;9.00;99.90;;;;;;6218520;23;20201;-78
2022/10/28 06:36:36;;;;;;;43.87;24.77;;;9.10;99.90;;;;;;6245549;23;20242;-79
2022/10/28 06:39:03;;;;;;;44.63;25.53;;;9.10;99.90;;;;;;6219557;23;20264;-79
2022/10/28 06:41:30;;;;;;;46.10;25.50;;;9.20;99.90;;;;;;6218807;23;20177;-79
2022/10/28 06:43:57;;;;;;;42.63;24.37;;;9.20;99.90;;;;;;6218730;23;20635;-78
2022/10/28 06:46:24;;;;;;;44.40;25.13;;;9.20;99.90;;;;;;6218591;23;20209;-75
2022/10/28 06:48:53;;;;;;;42.97;25.07;;;9.30;99.90;;;;;;6245277;23;20174;-76
2022/10/28 06:51:20;;;;;;;48.27;25.97;;;9.30;99.90;;;;;;6218422;23;20170;-77
2022/10/28 06:53:49;;;;;;;52.63;28.10;;;9.50;99.90;;;;;;6219624;23;20174;-75
2022/10/28 06:56:16;;;;;;;48.77;28.70;;;9.60;99.90;;;;;;6247235;23;20608;-76
2022/10/28 06:58:43;;;;;;;47.70;27.63;;;9.60;99.90;;;;;;6220988;23;20196;-76
2022/10/28 07:01:10;;;;;;;48.57;28.73;;;9.70;99.90;;;;;;6220808;23;20580;-75
2022/10/28 07:03:37;;;;;;;47.67;27.37;;;9.80;99.90;;;;;;6195986;23;20177;-76
2022/10/28 07:06:05;;;;;;;50.40;29.63;;;10.00;99.90;;;;;;6245328;23;20197;-76
2022/10/28 07:08:32;;;;;;;52.13;28.97;;;10.10;99.90;;;;;;6220796;23;20166;-75
2022/10/28 07:11:01;;;;;;;50.93;28.03;;;10.30;99.90;;;;;;6220136;23;20178;-73
2022/10/28 07:13:28;;;;;;;49.90;28.80;;;10.40;99.90;;;;;;6245790;23;20202;-74
2022/10/28 07:15:58;;;;;;;52.17;29.13;;;10.40;99.90;;;;;;6246754;22;20233;-74
2022/10/28 07:18:27;;;;;;;48.90;29.43;;;10.60;99.90;;;;;;6220449;23;20170;-75
2022/10/28 07:20:59;;;;;;;50.13;28.57;;;10.60;99.90;;;;;;6220127;23;20166;-76
2022/10/28 07:23:27;;;;;;;45.30;28.40;;;10.70;99.90;;;;;;6246988;23;20170;-75
2022/10/28 07:25:55;;;;;;;45.43;27.57;;;10.80;99.90;;;;;;6220042;23;20186;-74
2022/10/28 07:28:23;;;;;;;46.73;28.93;;;10.90;99.90;;;;;;6220531;23;20205;-74
2022/10/28 07:30:51;;;;;;;47.33;28.03;;;11.00;99.90;;;;;;6246947;23;20193;-76
2022/10/28 07:33:18;;;;;;;47.73;27.57;;;11.10;99.90;;;;;;6220250;23;20177;-76
2022/10/28 07:35:45;;;;;;;49.50;28.57;;;11.20;99.90;;;;;;6220293;23;20176;-75
2022/10/28 07:38:12;;;;;;;46.87;28.63;;;11.30;99.90;;;;;;6220329;23;20174;-75
2022/10/28 07:40:39;;;;;;;45.33;28.67;;;11.30;99.90;;;;;;6246926;23;20486;-76
2022/10/28 07:43:06;;;;;;;46.40;27.53;;;11.40;99.90;;;;;;6247552;23;20193;-76
2022/10/28 07:45:34;;;;;;;42.83;27.30;;;11.70;99.90;;;;;;6219912;23;20170;-76
2022/10/28 07:48:02;;;;;;;39.93;26.43;;;12.20;99.90;;;;;;6247110;23;20174;-76
2022/10/28 07:50:29;;;;;;;38.60;24.60;;;12.70;99.90;;;;;;6220332;23;20216;-75
2022/10/28 07:52:56;;;;;;;36.50;24.27;;;13.10;99.90;;;;;;6250876;23;20197;-76
2022/10/28 07:55:24;;;;;;;36.57;23.90;;;13.60;99.90;;;;;;6253457;23;20170;-76
2022/10/28 07:57:51;;;;;;;33.10;22.70;;;14.10;99.90;;;;;;6225939;23;20600;-75
2022/10/28 08:00:19;;;;;;;36.33;22.43;;;14.30;99.90;;;;;;6223057;23;20588;-75
2022/10/28 08:02:46;;;;;;;36.17;22.43;;;14.30;99.90;;;;;;6246456;23;20176;-75
2022/10/28 08:05:12;;;;;;;34.63;22.33;;;14.20;99.90;;;;;;6244615;23;20178;-76
2022/10/28 08:07:39;;;;;;;34.90;22.03;;;14.10;99.90;;;;;;6245357;23;20186;-76
2022/10/28 08:10:07;;;;;;;36.87;23.30;;;13.90;99.90;;;;;;6219382;23;20194;-75
2022/10/28 08:12:33;;;;;;;38.37;22.97;;;13.80;99.90;;;;;;6246335;23;20170;-76
2022/10/28 08:15:01;;;;;;;35.53;22.57;;;14.00;99.90;;;;;;6219502;23;20669;-76
2022/10/28 08:17:29;;;;;;;35.60;22.37;;;14.30;99.90;;;;;;6219318;23;20229;-76
2022/10/28 08:19:55;;;;;;;36.67;22.40;;;14.60;99.90;;;;;;6246280;23;20162;-76
2022/10/28 08:22:23;;;;;;;31.13;20.57;;;14.80;99.90;;;;;;6246309;23;20166;-76
2022/10/28 08:24:50;;;;;;;34.43;21.60;;;14.90;99.90;;;;;;6219273;23;20171;-76
2022/10/28 08:27:17;;;;;;;34.80;21.23;;;14.90;99.90;;;;;;6246278;23;20189;-76
2022/10/28 08:29:43;;;;;;;35.07;22.73;;;15.10;99.90;;;;;;6219642;23;20463;-75
2022/10/28 08:32:10;;;;;;;33.20;21.43;;;15.30;99.90;;;;;;6219564;23;20624;-75
2022/10/28 08:34:37;;;;;;;35.37;21.50;;;15.40;99.90;;;;;;6244277;23;20169;-75
2022/10/28 08:37:09;;;;;;;34.13;22.20;;;15.40;99.90;;;;;;6246271;23;20611;-75
2022/10/28 08:39:36;;;;;;;35.63;22.23;;;15.40;99.90;;;;;;6219500;23;20166;-76
2022/10/28 08:42:43;;;;;;;34.23;21.80;;;15.60;99.90;;;;;;6246208;23;20170;-75
2022/10/28 08:45:14;;;;;;;33.73;20.40;;;15.90;99.90;;;;;;6219621;23;20207;-75
2022/10/28 08:48:08;;;;;;;30.73;19.90;;;16.40;99.90;;;;;;6244266;23;20190;-76
2022/10/28 08:50:48;;;;;;;31.17;20.13;;;16.70;99.90;;;;;;6216835;23;20171;-75
2022/10/28 08:53:20;;;;;;;33.27;21.17;;;16.70;99.90;;;;;;6219583;23;20162;-75
2022/10/28 08:55:49;;;;;;;32.30;19.57;;;16.50;99.90;;;;;;6245946;23;20181;-76
2022/10/28 08:58:24;;;;;;;31.20;20.63;;;16.30;99.90;;;;;;6245952;23;20166;-76
2022/10/28 09:00:53;;;;;;;29.50;18.67;;;16.10;99.90;;;;;;6219082;23;20173;-76
2022/10/28 09:03:25;;;;;;;31.40;19.77;;;16.10;99.90;;;;;;6219194;23;20173;-76
2022/10/28 09:06:00;;;;;;;34.13;19.83;;;16.30;99.90;;;;;;6218989;23;20170;-76
2022/10/28 09:08:30;;;;;;;33.70;20.57;;;16.70;99.90;;;;;;6219003;23;20166;-77
2022/10/28 09:11:09;;;;;;;28.80;19.27;;;16.90;99.90;;;;;;6219351;23;20177;-77
2022/10/28 09:13:36;;;;;;;33.87;19.43;;;17.30;99.90;;;;;;6245610;23;20539;-76
2022/10/28 09:16:22;;;;;;;30.57;19.13;;;17.60;99.90;;;;;;6243813;22;20631;-77
2022/10/28 09:18:57;;;;;;;29.37;17.97;;;17.70;99.90;;;;;;6244458;23;20585;-76
2022/10/28 09:21:49;;;;;;;31.47;19.13;;;18.10;99.90;;;;;;6219710;23;20228;-77
2022/10/28 09:24:48;;;;;;;32.97;19.27;;;18.40;99.90;;;;;;6246106;23;20171;-77
2022/10/28 09:27:36;;;;;;;29.20;17.63;;;18.80;99.90;;;;;;6153093;23;20200;-77
2022/10/28 09:30:17;;;;;;;30.50;18.20;;;19.20;99.90;;;;;;6153201;23;20181;-76
2022/10/28 09:33:01;;;;;;;28.30;16.87;;;19.60;99.90;;;;;;6128596;23;20176;-76
2022/10/28 09:35:35;;;;;;;27.90;16.53;;;19.70;99.90;;;;;;6152886;23;20267;-77
2022/10/28 09:38:11;;;;;;;29.07;17.53;;;19.60;99.90;;;;;;6152937;23;20176;-76
2022/10/28 09:40:42;;;;;;;26.63;17.33;;;19.50;99.90;;;;;;6128724;23;20194;-76
2022/10/28 09:43:27;;;;;;;26.73;16.63;;;19.30;99.90;;;;;;6127966;23;20180;-77
2022/10/28 09:46:00;;;;;;;26.17;17.20;;;19.40;99.90;;;;;;6152706;23;20176;-76
2022/10/28 09:48:31;;;;;;;26.77;16.00;;;19.60;99.90;;;;;;6128089;23;20200;-77
2022/10/28 09:50:59;;;;;;;26.70;16.80;;;20.00;99.90;;;;;;6153113;23;20172;-77
2022/10/28 09:53:45;;;;;;;27.87;16.23;;;20.40;99.90;;;;;;6128649;23;20192;-76
2022/10/28 09:56:16;;;;;;;24.17;16.23;;;20.40;99.90;;;;;;6128065;23;20176;-77
2022/10/28 09:58:47;;;;;;;25.03;15.83;;;20.20;99.90;;;;;;6153214;23;20200;-77
2022/10/28 10:01:17;;;;;;;24.90;15.47;;;20.30;99.90;;;;;;6152331;23;20188;-77
2022/10/28 10:03:48;;;;;;;24.70;16.13;;;20.30;99.90;;;;;;6201867;23;20178;-77
2022/10/28 10:06:18;;;;;;;26.53;16.83;;;20.20;99.90;;;;;;6244076;23;20261;-77
2022/10/28 10:08:45;;;;;;;23.80;15.43;;;20.00;99.90;;;;;;6218580;23;20657;-77
2022/10/28 10:11:34;;;;;;;24.10;16.20;;;20.00;99.90;;;;;;6245386;23;20538;-77
2022/10/28 10:14:09;;;;;;;24.87;15.83;;;20.30;99.90;;;;;;6218854;23;20205;-77
2022/10/28 10:16:53;;;;;;;27.87;16.13;;;20.50;99.90;;;;;;6245402;22;20196;-77
2022/10/28 10:19:20;;;;;;;22.20;14.50;;;20.90;99.90;;;;;;6218747;23;20174;-76
2022/10/28 10:21:50;;;;;;;24.00;15.10;;;21.60;99.90;;;;;;6244363;23;20162;-77
2022/10/28 10:24:28;;;;;;;27.03;15.53;;;21.80;99.90;;;;;;6218209;23;20236;-77
2022/10/28 10:26:59;;;;;;;24.40;15.90;;;21.90;99.90;;;;;;6245608;23;20642;-77
2022/10/28 10:29:27;;;;;;;25.37;16.30;;;22.00;99.90;;;;;;6246947;23;20230;-77
2022/10/28 10:32:29;;;;;;;25.27;15.57;;;22.00;99.90;;;;;;6245867;23;20225;-77
2022/10/28 10:35:19;;;;;;;24.80;15.27;;;21.90;99.90;;;;;;6154403;23;20179;-76
2022/10/28 10:37:50;;;;;;;22.10;15.43;;;21.80;99.90;;;;;;6129973;23;20190;-77
2022/10/28 10:40:47;;;;;;;24.33;15.60;;;22.00;99.90;;;;;;6129940;23;20172;-77
2022/10/28 10:43:16;;;;;;;24.37;15.50;;;22.20;99.90;;;;;;6154252;23;20180;-77
2022/10/28 10:46:12;;;;;;;25.23;14.93;;;22.30;99.90;;;;;;6129614;23;20507;-78
2022/10/28 10:48:40;;;;;;;26.27;14.93;;;22.60;99.90;;;;;;6151833;23;20614;-77
2022/10/28 10:51:17;;;;;;;24.00;15.20;;;22.90;99.90;;;;;;6129845;23;20176;-77
2022/10/28 10:53:59;;;;;;;24.60;15.03;;;23.40;99.90;;;;;;6152079;23;20498;-77
2022/10/28 10:57:00;;;;;;;23.77;15.03;;;23.70;99.90;;;;;;6127957;23;20180;-79
2022/10/28 10:59:29;;;;;;;23.43;15.33;;;24.00;99.90;;;;;;6154884;23;20176;-79
2022/10/28 11:02:18;;;;;;;30.50;15.23;;;24.40;99.90;;;;;;6154572;23;20172;-81
2022/10/28 11:04:51;;;;;;;21.53;14.20;;;24.50;99.90;;;;;;6154152;23;20179;-79
2022/10/28 11:07:18;;;;;;;23.33;15.30;;;24.50;99.90;;;;;;6154856;23;20271;-80
2022/10/28 11:09:49;;;;;;;21.83;14.27;;;24.60;99.90;;;;;;6146238;23;20176;-80
2022/10/28 11:12:34;;;;;;;21.08;14.73;;;24.90;99.90;;;;;;6220625;23;20197;-79
2022/10/28 11:15:23;;;;;;;21.27;13.95;;;25.20;99.90;;;;;;6244607;23;20202;-79
2022/10/28 11:17:54;;;;;;;19.27;13.60;;;25.50;99.90;;;;;;6220391;23;20487;-80
2022/10/28 11:20:47;;;;;;;20.88;12.68;;;25.40;99.90;;;;;;6247489;23;20189;-80
2022/10/28 11:23:20;;;;;;;21.60;13.10;;;25.60;99.90;;;;;;6220105;23;20170;-80
2022/10/28 11:25:53;;;;;;;17.23;11.88;;;25.50;99.90;;;;;;6220031;23;20174;-80
2022/10/28 11:28:53;;;;;;;22.98;12.65;;;25.70;99.90;;;;;;6220725;23;20196;-80
2022/10/28 11:31:39;;;;;;;19.60;12.05;;;25.80;99.90;;;;;;6220115;23;20193;-79
2022/10/28 11:34:22;;;;;;;15.95;12.05;;;25.90;99.90;;;;;;6246560;23;20178;-80
2022/10/28 11:36:49;;;;;;;17.83;11.77;;;25.90;99.90;;;;;;6246729;23;20488;-79
2022/10/28 11:39:29;;;;;;;15.63;11.05;;;26.50;99.90;;;;;;6245668;23;20166;-80
2022/10/28 11:42:34;;;;;;;17.60;11.23;;;26.80;99.90;;;;;;6219911;23;20181;-80
2022/10/28 11:45:32;;;;;;;16.58;10.32;;;27.20;99.90;;;;;;6153843;23;20180;-80
2022/10/28 11:48:04;;;;;;;15.90;10.93;;;27.60;99.90;;;;;;6129013;23;20204;-79
2022/10/28 11:51:05;;;;;;;18.13;11.27;;;28.20;99.90;;;;;;6129342;23;20533;-79
2022/10/28 11:54:05;;;;;;;15.68;10.30;;;27.70;99.90;;;;;;6129228;23;20180;-79
2022/10/28 11:56:57;;;;;;;14.00;10.15;;;27.40;99.90;;;;;;6129198;23;20223;-79
2022/10/28 11:59:36;;;;;;;15.10;10.38;;;27.80;99.90;;;;;;6129240;23;20220;-79
2022/10/28 12:02:40;;;;;;;14.73;10.00;;;27.40;99.90;;;;;;6129095;23;20176;-78
2022/10/28 12:05:27;;;;;;;16.38;9.95;;;27.40;99.90;;;;;;6129070;23;20219;-78
2022/10/28 12:08:32;;;;;;;13.90;9.90;;;27.50;99.90;;;;;;6153930;23;20638;-78
2022/10/28 12:11:26;;;;;;;14.18;9.65;;;27.70;99.90;;;;;;6099633;23;20709;-78
2022/10/28 12:14:21;;;;;;;14.02;10.02;;;28.10;99.90;;;;;;6124086;23;20661;-77
2022/10/28 12:17:13;;;;;;;13.65;9.85;;;28.70;99.90;;;;;;6099767;23;20177;-78
2022/10/28 12:19:45;;;;;;;17.45;10.30;;;28.20;99.80;;;;;;6130909;23;20201;-77
2022/10/28 12:22:20;;;;;;;14.93;10.10;;;27.70;99.90;;;;;;6183784;23;20179;-77
2022/10/28 12:24:49;;;;;;;17.90;10.18;;;27.80;99.90;;;;;;6158545;23;20185;-78
2022/10/28 12:27:47;;;;;;;16.50;10.65;;;28.00;99.90;;;;;;6158306;23;20282;-77
2022/10/28 12:30:23;;;;;;;13.52;9.43;;;27.70;99.90;;;;;;6099739;23;20196;-77
2022/10/28 12:32:58;;;;;;;13.93;9.35;;;28.00;99.90;;;;;;6123969;23;20232;-78
2022/10/28 12:35:34;;;;;;;18.10;10.30;;;28.10;99.50;;;;;;6123367;23;20183;-77
2022/10/28 12:38:21;;;;;;;14.07;9.52;;;27.80;99.60;;;;;;6100067;23;20177;-78
2022/10/28 12:40:57;;;;;;;16.27;9.82;;;27.30;99.90;;;;;;6127290;23;20177;-77
2022/10/28 12:43:57;;;;;;;18.20;9.77;;;27.30;99.90;;;;;;6153829;23;20172;-77
2022/10/28 12:46:48;;;;;;;14.45;9.15;;;26.70;99.90;;;;;;6129197;23;20590;-78
2022/10/28 12:49:45;;;;;;;15.60;9.00;;;27.10;99.90;;;;;;6153692;23;20203;-77
2022/10/28 12:52:33;;;;;;;14.25;8.82;;;27.20;99.90;;;;;;6128899;23;20173;-77
2022/10/28 12:55:10;;;;;;;14.45;9.18;;;27.00;99.90;;;;;;6129294;23;20180;-77
2022/10/28 12:57:39;;;;;;;14.20;9.18;;;26.60;99.90;;;;;;6129668;23;20223;-78
2022/10/28 13:00:22;;;;;;;14.98;9.68;;;26.20;99.90;;;;;;6153890;23;20168;-77
2022/10/28 13:03:01;;;;;;;16.67;9.77;;;26.20;99.90;;;;;;6153746;23;20280;-77
2022/10/28 13:05:52;;;;;;;16.08;10.20;;;26.00;99.90;;;;;;6129659;23;20652;-77